createdAt,value
2023-01-06T00:02:46.924Z,84.72
2023-01-06T00:07:50.042Z,85.58
2023-01-06T00:12:52.489Z,86.66
2023-01-06T00:17:54.145Z,85.87
2023-01-06T00:22:55.727Z,86.21
2023-01-06T00:27:57.457Z,85.99
2023-01-06T00:32:59.060Z,86.76
2023-01-06T00:38:00.653Z,87.02
2023-01-06T00:43:02.314Z,86.67
2023-01-06T00:48:04.155Z,86.75
2023-01-06T00:53:05.926Z,85.72
2023-01-06T00:58:07.616Z,86.54
2023-01-06T01:03:09.292Z,86.33
2023-01-06T01:08:10.883Z,86.31
2023-01-06T01:13:12.431Z,87.14
2023-01-06T01:18:13.990Z,87.24
2023-01-06T01:23:16.165Z,86.31
2023-01-06T01:28:17.738Z,86.67
2023-01-06T01:33:19.332Z,86.19
2023-01-06T01:38:21.201Z,85.54
2023-01-06T01:43:22.885Z,86.77
2023-01-06T01:48:32.313Z,86.26
2023-01-06T01:53:37.522Z,86.91
2023-01-06T01:58:48.165Z,87.53
2023-01-06T02:03:49.824Z,87.88
2023-01-06T02:09:04.662Z,88.15
2023-01-06T02:14:12.356Z,87.41
2023-01-06T02:19:51.361Z,87.07
2023-01-06T02:25:34.137Z,87.80
2023-01-06T02:31:16.204Z,87.17
2023-01-06T02:36:35.116Z,88.04
2023-01-06T02:41:48.281Z,88.06
2023-01-06T02:46:53.970Z,87.72
2023-01-06T02:52:04.775Z,87.88
2023-01-06T02:57:38.009Z,88.71
2023-01-06T03:02:41.538Z,87.14
2023-01-06T03:07:45.536Z,87.99
2023-01-06T03:12:52.927Z,88.26
2023-01-06T03:17:55.181Z,87.30
2023-01-06T03:22:56.882Z,87.47
2023-01-06T03:27:58.553Z,86.91
2023-01-06T03:33:03.491Z,86.54
2023-01-06T03:38:33.602Z,86.40
2023-01-06T03:43:41.441Z,87.68
2023-01-06T03:48:57.393Z,87.29
2023-01-06T03:54:04.191Z,87.59
2023-01-06T03:59:11.193Z,86.33
2023-01-06T04:04:13.413Z,85.66
2023-01-06T04:09:15.849Z,85.64
2023-01-06T04:14:20.485Z,87.39
2023-01-06T04:19:22.428Z,86.46
2023-01-06T04:24:24.174Z,86.71
2023-01-06T04:29:25.893Z,86.37
2023-01-06T04:34:30.228Z,86.45
2023-01-06T04:39:33.004Z,86.13
2023-01-06T04:44:34.661Z,86.28
2023-01-06T04:49:36.390Z,86.09
2023-01-06T04:54:38.031Z,86.45
2023-01-06T04:59:39.614Z,85.67
2023-01-06T05:04:47.781Z,85.40
2023-01-06T05:09:49.825Z,86.63
2023-01-06T05:14:51.503Z,86.24
2023-01-06T05:19:53.184Z,86.42
2023-01-06T05:24:55.903Z,86.14
2023-01-06T05:29:57.496Z,87.31
2023-01-06T05:34:59.123Z,87.38
2023-01-06T05:40:00.690Z,87.80
2023-01-06T05:45:02.328Z,88.28
2023-01-06T05:50:04.718Z,88.57
2023-01-06T05:55:06.846Z,89.47
2023-01-06T06:00:09.106Z,89.22
2023-01-06T06:05:16.317Z,89.80
2023-01-06T06:10:17.990Z,89.85
2023-01-06T06:15:19.781Z,89.06
2023-01-06T06:20:21.377Z,89.17
2023-01-06T06:25:22.964Z,89.96
2023-01-06T06:30:24.690Z,90.62
2023-01-06T06:35:26.382Z,90.16
2023-01-06T06:40:27.981Z,90.66
2023-01-06T06:45:29.617Z,90.72
2023-01-06T06:50:31.290Z,90.25
2023-01-06T06:55:33.548Z,91.47
2023-01-06T07:00:35.130Z,90.97
2023-01-06T07:05:36.785Z,90.87
2023-01-06T07:10:38.788Z,90.92
2023-01-06T07:15:40.507Z,91.11
2023-01-06T07:20:47.088Z,91.48
2023-01-06T07:25:53.224Z,91.51
2023-01-06T07:30:54.941Z,91.54
2023-01-06T07:35:57.287Z,91.58
2023-01-06T07:41:00.929Z,92.83
2023-01-06T07:46:02.572Z,92.20
2023-01-06T07:51:04.354Z,91.72
2023-01-06T07:56:06.502Z,91.88
2023-01-06T08:01:08.480Z,92.00
2023-01-06T08:06:11.107Z,91.78
2023-01-06T08:11:13.318Z,91.41
2023-01-06T08:16:15.065Z,92.58
2023-01-06T08:21:16.752Z,92.41
2023-01-06T08:26:18.652Z,93.98
2023-01-06T08:31:21.554Z,93.94
2023-01-06T08:36:24.199Z,93.99
2023-01-06T08:41:25.840Z,93.50
2023-01-06T08:46:27.502Z,93.10
2023-01-06T08:51:29.177Z,93.20
2023-01-06T08:56:31.641Z,92.54
2023-01-06T09:01:35.971Z,92.59
2023-01-06T09:06:38.504Z,92.78
2023-01-06T09:11:44.836Z,92.74
2023-01-06T09:16:48.677Z,92.84
2023-01-06T09:21:50.332Z,93.26
2023-01-06T09:26:51.997Z,93.57
2023-01-06T09:31:53.578Z,92.33
2023-01-06T09:36:55.182Z,93.35
2023-01-06T09:42:21.544Z,93.04
2023-01-06T09:47:28.297Z,93.45
2023-01-06T09:52:36.211Z,93.22
2023-01-06T09:57:41.187Z,92.14
2023-01-06T10:02:43.359Z,91.95
2023-01-06T10:08:03.957Z,92.82
2023-01-06T10:13:29.517Z,91.72
2023-01-06T10:18:31.101Z,91.72
2023-01-06T10:23:39.414Z,91.75
2023-01-06T10:28:43.895Z,91.34
2023-01-06T10:33:53.479Z,91.81
2023-01-06T10:38:55.260Z,91.58
2023-01-06T10:43:57.499Z,92.44
2023-01-06T10:48:59.167Z,92.87
2023-01-06T10:54:02.750Z,92.51
2023-01-06T10:59:14.123Z,91.75
2023-01-06T11:04:17.334Z,92.47
2023-01-06T11:09:39.182Z,91.82
2023-01-06T11:14:41.261Z,91.65
2023-01-06T11:19:45.017Z,93.04
2023-01-06T11:24:52.859Z,92.27
2023-01-06T11:29:55.026Z,91.42
2023-01-06T11:35:05.004Z,87.85
2023-01-06T11:40:25.335Z,87.12
2023-01-06T11:46:04.723Z,85.77
2023-01-06T11:51:09.067Z,86.05
2023-01-06T11:56:13.405Z,85.21
2023-01-06T12:01:46.276Z,84.95
2023-01-06T12:06:49.194Z,84.43
2023-01-06T12:11:52.975Z,84.46
2023-01-06T12:16:56.891Z,87.35
2023-01-06T12:21:59.464Z,89.36
2023-01-06T12:27:02.776Z,90.76
2023-01-06T12:32:15.251Z,89.39
2023-01-06T12:37:37.753Z,89.18
2023-01-06T12:42:46.749Z,88.35
2023-01-06T12:47:54.155Z,87.60
2023-01-06T12:53:07.333Z,87.38
2023-01-06T12:58:25.115Z,86.45
2023-01-06T13:03:50.930Z,84.76
2023-01-06T13:09:33.382Z,83.47
2023-01-06T13:14:46.915Z,81.74
2023-01-06T13:19:52.483Z,80.96
2023-01-06T13:25:25.233Z,79.92
2023-01-06T13:30:50.974Z,78.99
2023-01-06T13:36:11.248Z,77.92
2023-01-06T13:41:16.914Z,77.66
2023-01-06T13:46:21.239Z,77.07
2023-01-06T13:51:27.258Z,77.01
2023-01-06T13:56:31.129Z,76.76
2023-01-06T14:01:34.101Z,76.41
2023-01-06T14:06:39.954Z,77.26
2023-01-06T14:11:41.813Z,76.34
2023-01-06T14:16:48.057Z,76.36
2023-01-06T14:21:52.060Z,75.59
2023-01-06T14:27:02.461Z,75.92
2023-01-06T14:32:04.108Z,76.39
2023-01-06T14:37:11.884Z,76.35
2023-01-06T14:42:20.829Z,76.53
2023-01-06T14:47:42.723Z,76.43
2023-01-06T14:52:55.902Z,76.74
2023-01-06T14:57:57.535Z,76.25
2023-01-06T15:03:20.140Z,75.96
2023-01-06T15:08:23.209Z,75.48
2023-01-06T15:13:31.580Z,74.67
2023-01-06T15:18:34.309Z,74.51
2023-01-06T15:23:38.211Z,74.69
2023-01-06T15:28:39.776Z,75.82
2023-01-06T15:33:41.793Z,76.46
2023-01-06T15:38:43.466Z,77.11
2023-01-06T15:43:45.951Z,76.96
2023-01-06T15:48:48.820Z,76.52
2023-01-06T15:53:56.369Z,76.17
2023-01-06T15:58:58.883Z,75.82
2023-01-06T16:04:01.884Z,75.44
2023-01-06T16:09:37.718Z,75.58
2023-01-06T16:14:51.831Z,75.70
2023-01-06T16:20:01.205Z,75.65
2023-01-06T16:25:26.897Z,75.38
2023-01-06T16:30:30.176Z,75.25
2023-01-06T16:35:33.749Z,76.33
2023-01-06T16:40:35.371Z,77.65
2023-01-06T16:45:47.287Z,78.66
2023-01-06T16:50:54.792Z,79.19
2023-01-06T16:55:57.778Z,78.56
2023-01-06T17:01:08.239Z,77.98
2023-01-06T17:06:17.640Z,78.27
2023-01-06T17:11:21.518Z,77.84
2023-01-06T17:16:27.332Z,77.96
2023-01-06T17:21:30.123Z,77.77
2023-01-06T17:26:32.234Z,77.14
2023-01-06T17:31:37.973Z,77.41
2023-01-06T17:36:41.826Z,77.81
2023-01-06T17:41:43.697Z,78.60
2023-01-06T17:46:46.463Z,79.12
2023-01-06T17:51:49.314Z,78.93
2023-01-06T17:56:52.288Z,78.90
2023-01-06T18:01:53.906Z,79.18
2023-01-06T18:06:55.572Z,79.03
2023-01-06T18:11:59.287Z,79.42
2023-01-06T18:17:15.373Z,79.68
2023-01-06T18:22:19.857Z,79.29
2023-01-06T18:27:25.320Z,79.42
2023-01-06T18:32:28.306Z,79.05
2023-01-06T18:37:32.550Z,78.87
2023-01-06T18:42:38.226Z,78.42
2023-01-06T18:47:41.607Z,78.43
2023-01-06T18:52:45.763Z,78.63
2023-01-06T18:57:55.224Z,78.83
2023-01-06T19:03:06.366Z,79.11
2023-01-06T19:08:15.701Z,79.41
2023-01-06T19:13:23.363Z,79.60
2023-01-06T19:18:28.417Z,80.31
2023-01-06T19:23:31.021Z,80.06
2023-01-06T19:28:34.162Z,79.36
2023-01-06T19:33:41.715Z,79.62
2023-01-06T19:38:44.178Z,79.79
2023-01-06T19:43:46.888Z,79.88
2023-01-06T19:48:49.242Z,79.83
2023-01-06T19:53:54.565Z,80.37
2023-01-06T19:59:30.282Z,80.10
2023-01-06T20:04:31.865Z,80.19
2023-01-06T20:09:34.110Z,80.02
2023-01-06T20:14:35.858Z,79.66
2023-01-06T20:19:37.460Z,79.62
2023-01-06T20:24:39.845Z,79.17
2023-01-06T20:29:41.508Z,79.52
2023-01-06T20:34:43.133Z,79.59
2023-01-06T20:39:44.954Z,79.50
2023-01-06T20:44:46.673Z,79.51
2023-01-06T20:49:48.519Z,80.21
2023-01-06T20:54:50.641Z,79.29
2023-01-06T20:59:52.234Z,79.50
2023-01-06T21:04:53.798Z,79.20
2023-01-06T21:09:55.387Z,79.72
2023-01-06T21:14:56.978Z,79.73
2023-01-06T21:19:58.544Z,79.54
2023-01-06T21:25:00.160Z,80.03
2023-01-06T21:30:02.133Z,79.86
2023-01-06T21:35:03.948Z,80.45
2023-01-06T21:40:09.044Z,80.13
2023-01-06T21:45:11.072Z,79.97
2023-01-06T21:50:12.931Z,80.47
2023-01-06T21:55:14.800Z,79.97
2023-01-06T22:00:16.984Z,78.87
2023-01-06T22:05:18.622Z,79.46
2023-01-06T22:10:22.374Z,79.60
2023-01-06T22:15:24.020Z,80.14
2023-01-06T22:20:27.232Z,80.27
2023-01-06T22:25:28.994Z,80.30
2023-01-06T22:30:30.853Z,79.05
2023-01-06T22:35:32.575Z,79.29
2023-01-06T22:40:34.213Z,79.40
2023-01-06T22:45:35.903Z,79.60
2023-01-06T22:50:38.174Z,80.48
2023-01-06T22:55:39.757Z,82.72
2023-01-06T23:00:41.367Z,82.91
2023-01-06T23:05:42.949Z,81.88
2023-01-06T23:10:44.561Z,82.36
2023-01-06T23:15:46.337Z,83.53
2023-01-06T23:20:56.711Z,83.13
2023-01-06T23:26:06.077Z,84.86
2023-01-06T23:31:13.191Z,85.33
2023-01-06T23:36:17.354Z,85.74
2023-01-06T23:41:21.793Z,85.43
2023-01-06T23:46:25.896Z,85.24
2023-01-06T23:51:32.169Z,85.26
2023-01-06T23:56:35.670Z,86.00
